Time;durP1;ratioP1;P1;durP2;ratioP2;P2;SDS_P1;SDS_P2;PMS_P1;PMS_P2;Temp;Humidity;BMP_temperature;BMP_pressure;BME280_temperature;BME280_humidity;BME280_pressure;Samples;Min_cycle;Max_cycle;Signal;HPM_P1;HPM_P2
2022/10/09 00:00:26;;;;;;;23.07;11.12;;;;;;;12.61;92.13;150822.19;1712213;83;21437;-69
2022/10/09 00:02:53;;;;;;;20.40;10.58;;;;;;;12.60;92.11;150820.88;1712079;83;21128;-68
2022/10/09 00:05:22;;;;;;;20.60;10.78;;;;;;;12.56;92.33;150810.48;1712505;83;21427;-69
2022/10/09 00:07:48;;;;;;;18.07;10.45;;;;;;;12.54;92.52;150803.97;1708489;83;21241;-70
2022/10/09 00:10:15;;;;;;;20.92;10.60;;;;;;;12.51;92.73;150796.17;1689720;84;21387;-69
2022/10/09 00:12:42;;;;;;;25.08;11.78;;;;;;;12.49;92.82;150792.31;1702696;83;21489;-70
2022/10/09 00:15:10;;;;;;;17.40;10.55;;;;;;;12.43;92.90;150776.67;1702568;83;21059;-70
2022/10/09 00:17:36;;;;;;;24.37;10.48;;;;;;;12.37;93.19;150761.09;1703049;83;21417;-69
2022/10/09 00:20:05;;;;;;;13.78;10.00;;;;;;;12.30;93.57;150745.52;1702753;84;21038;-70
2022/10/09 00:22:31;;;;;;;24.80;11.00;;;;;;;12.25;93.87;150731.22;1702722;84;21553;-70
2022/10/09 00:24:58;;;;;;;17.98;10.18;;;;;;;12.18;94.15;150714.31;1702819;83;21107;-70
2022/10/09 00:27:24;;;;;;;20.02;10.23;;;;;;;12.14;94.46;150703.94;1699117;84;21060;-64
2022/10/09 00:29:53;;;;;;;17.00;9.60;;;;;;;12.09;94.85;150690.95;1690133;84;21024;-62
2022/10/09 00:32:20;;;;;;;17.70;9.83;;;;;;;12.04;95.24;150680.53;1657731;85;21495;-62
2022/10/09 00:34:46;;;;;;;16.02;9.80;;;;;;;12.00;95.45;150670.09;1672799;85;21025;-63
2022/10/09 00:37:13;;;;;;;20.45;10.32;;;;;;;11.96;95.78;150659.70;1672688;85;21053;-63
2022/10/09 00:39:40;;;;;;;18.05;10.78;;;;;;;11.93;96.31;150651.92;1653694;86;21096;-63
2022/10/09 00:42:12;;;;;;;23.65;11.35;;;;;;;11.90;96.41;150644.13;1672914;85;21247;-63
2022/10/09 00:44:56;;;;;;;17.12;10.05;;;;;;;11.86;96.60;150633.75;1653505;86;21575;-63
2022/10/09 00:47:32;;;;;;;21.48;10.48;;;;;;;11.83;96.74;150625.97;1653733;86;21336;-61
2022/10/09 00:50:14;;;;;;;19.35;10.48;;;;;;;11.79;97.17;150615.53;1653751;86;21108;-63
2022/10/09 00:52:40;;;;;;;22.55;10.23;;;;;;;11.75;97.44;150607.75;1653901;86;21514;-63
2022/10/09 00:55:08;;;;;;;20.00;9.40;;;;;;;11.74;97.77;150603.87;1653530;86;21225;-62
2022/10/09 00:57:35;;;;;;;20.27;10.43;;;;;;;11.69;98.04;150592.17;1673184;85;21058;-63
2022/10/09 01:00:05;;;;;;;22.87;11.03;;;;;;;11.67;98.38;150585.66;1653554;85;21032;-63
2022/10/09 01:02:32;;;;;;;19.30;10.82;;;;;;;11.65;98.65;150581.80;1654018;86;21064;-61
2022/10/09 01:04:59;;;;;;;18.67;10.40;;;;;;;11.64;98.86;150579.20;1653463;86;21147;-62
2022/10/09 01:07:48;;;;;;;19.32;10.98;;;;;;;11.63;99.04;150576.61;1664671;85;21633;-62
2022/10/09 01:10:33;;;;;;;20.92;10.65;;;;;;;11.62;99.19;150574.02;1685391;84;21053;-62
2022/10/09 01:13:27;;;;;;;17.85;10.93;;;;;;;11.60;99.51;150568.78;1684572;84;21103;-62
2022/10/09 01:16:03;;;;;;;18.82;11.68;;;;;;;11.59;99.77;150566.17;1685427;84;21075;-62
2022/10/09 01:18:57;;;;;;;19.85;10.70;;;;;;;11.60;100.00;150568.78;1657669;85;21554;-63
2022/10/09 01:21:34;;;;;;;17.37;11.00;;;;;;;11.61;100.00;150571.41;1690698;84;21386;-69
2022/10/09 01:24:30;;;;;;;24.87;11.88;;;;;;;11.63;100.00;150576.61;1690984;84;21588;-70
2022/10/09 01:27:10;;;;;;;17.13;9.73;;;;;;;11.66;100.00;150584.39;1690594;84;21143;-68
2022/10/09 01:29:45;;;;;;;22.40;10.13;;;;;;;11.68;100.00;150589.58;1666553;86;21477;-69
2022/10/09 01:32:15;;;;;;;19.00;10.90;;;;;;;11.69;100.00;150592.17;1671957;84;21070;-69
2022/10/09 01:34:44;;;;;;;18.98;10.40;;;;;;;11.71;100.00;150597.38;1650038;85;21001;-68
2022/10/09 01:37:13;;;;;;;18.07;10.23;;;;;;;11.73;99.88;150601.28;1671027;85;21533;-69
2022/10/09 01:39:42;;;;;;;17.25;11.03;;;;;;;11.71;99.79;150597.38;1668259;86;21517;-68
2022/10/09 01:42:10;;;;;;;18.80;11.25;;;;;;;11.71;99.78;150597.38;1668384;86;21107;-69
2022/10/09 01:44:37;;;;;;;20.32;11.68;;;;;;;11.70;99.73;150594.78;1670437;85;21092;-69
2022/10/09 01:47:04;;;;;;;24.65;11.90;;;;;;;11.67;99.74;150586.98;1668388;86;21256;-69
2022/10/09 01:49:48;;;;;;;20.10;11.88;;;;;;;11.66;99.87;150584.39;1670837;85;21092;-69
2022/10/09 01:52:29;;;;;;;;;;;;;;;11.64;99.95;150579.20;1670303;86;21071;-69
2022/10/09 01:55:32;;;;;;;23.35;12.80;;;;;;;11.61;100.00;150572.69;1667958;85;20132;-70
2022/10/09 01:58:38;;;;;;;20.55;11.95;;;;;;;11.59;100.00;150567.50;1670779;85;21088;-69
2022/10/09 02:01:13;;;;;;;22.37;12.65;;;;;;;11.57;100.00;150560.98;1668150;86;22723;-69
2022/10/09 02:03:43;;;;;;;18.23;11.20;;;;;;;11.57;100.00;150560.98;1660068;86;21287;-69
2022/10/09 02:06:11;;;;;;;26.77;11.48;;;;;;;11.56;100.00;150558.39;1670848;85;21041;-68
2022/10/09 02:08:39;;;;;;;19.23;10.88;;;;;;;11.55;100.00;150557.12;1691158;84;21620;-70
2022/10/09 02:11:10;;;;;;;27.25;11.85;;;;;;;11.54;100.00;150554.53;1695664;84;21016;-69
2022/10/09 02:13:38;;;;;;;21.15;10.88;;;;;;;11.53;100.00;150550.61;1668557;84;21055;-69
2022/10/09 02:16:32;;;;;;;21.15;11.75;;;;;;;11.53;100.00;150550.61;1695448;83;20987;-68
2022/10/09 02:19:24;;;;;;;24.47;12.00;;;;;;;11.51;100.00;150545.42;1695714;84;22116;-69
2022/10/09 02:21:56;;;;;;;20.15;11.10;;;;;;;11.50;100.00;150542.81;1695981;84;21044;-69
2022/10/09 02:24:23;;;;;;;26.20;11.48;;;;;;;11.48;100.00;150537.63;1696147;84;20893;-70
2022/10/09 02:26:51;;;;;;;21.87;10.78;;;;;;;11.44;100.00;150529.84;1695405;84;21242;-69
2022/10/09 02:29:18;;;;;;;19.92;10.63;;;;;;;11.42;100.00;150524.66;1691569;84;21025;-70
2022/10/09 02:31:45;;;;;;;21.07;10.65;;;;;;;11.43;100.00;150527.25;1683871;84;21120;-70
2022/10/09 02:34:18;;;;;;;16.57;10.30;;;;;;;11.40;100.00;150519.47;1660336;86;21597;-68
2022/10/09 02:36:46;;;;;;;23.95;10.95;;;;;;;11.39;100.00;150516.88;1660772;86;21016;-69
2022/10/09 02:39:13;;;;;;;17.62;10.32;;;;;;;11.39;100.00;150515.56;1660262;86;21159;-69
2022/10/09 02:41:40;;;;;;;21.00;10.30;;;;;;;11.37;100.00;150511.64;1660914;86;21431;-62
2022/10/09 02:44:06;;;;;;;20.20;10.90;;;;;;;11.37;100.00;150511.64;1660528;86;21064;-63
2022/10/09 02:46:33;;;;;;;17.05;8.98;;;;;;;11.38;100.00;150514.23;1660650;86;21048;-62
2022/10/09 02:49:00;;;;;;;22.48;9.53;;;;;;;11.36;100.00;150507.78;1672546;85;21116;-63
2022/10/09 02:51:27;;;;;;;16.17;9.83;;;;;;;11.35;100.00;150505.17;1644019;87;21233;-63
2022/10/09 02:53:54;;;;;;;19.82;10.48;;;;;;;11.34;100.00;150503.86;1672703;85;21584;-69
2022/10/09 02:56:22;;;;;;;16.60;9.78;;;;;;;11.32;100.00;150499.98;1672743;85;21017;-70
2022/10/09 02:58:49;;;;;;;20.70;9.00;;;;;;;11.31;100.00;150496.06;1672960;85;21313;-69
2022/10/09 03:01:15;;;;;;;14.75;9.43;;;;;;;11.29;100.00;150490.88;1663152;86;21064;-69
2022/10/09 03:03:42;;;;;;;19.15;9.55;;;;;;;11.27;100.00;150485.69;1707435;83;21800;-69
2022/10/09 03:06:13;;;;;;;19.42;10.20;;;;;;;11.23;100.00;150475.31;1706960;84;21068;-69
2022/10/09 03:08:43;;;;;;;18.10;10.10;;;;;;;11.20;100.00;150467.53;1701550;84;20943;-69
2022/10/09 03:11:12;;;;;;;19.05;10.28;;;;;;;11.16;100.00;150459.75;1690029;84;21040;-70
2022/10/09 03:13:39;;;;;;;15.32;9.83;;;;;;;11.13;100.00;150451.92;1666905;86;21063;-69
2022/10/09 03:16:13;;;;;;;22.37;10.20;;;;;;;11.13;100.00;150451.92;1704036;84;21136;-70
2022/10/09 03:18:42;;;;;;;18.65;10.82;;;;;;;11.09;100.00;150441.55;1704543;84;21004;-68
2022/10/09 03:21:13;;;;;;;16.95;10.05;;;;;;;11.09;100.00;150441.55;1704153;84;21040;-69
2022/10/09 03:23:40;;;;;;;20.25;10.10;;;;;;;11.07;100.00;150436.36;1688644;84;20956;-69
2022/10/09 03:26:15;;;;;;;17.95;9.70;;;;;;;11.05;100.00;150431.16;1687680;85;21088;-69
2022/10/09 03:28:46;;;;;;;20.10;11.55;;;;;;;11.03;100.00;150427.25;1694008;84;21202;-68
2022/10/09 03:31:15;;;;;;;19.15;10.28;;;;;;;11.03;100.00;150425.98;1702030;82;21010;-61
2022/10/09 03:33:42;;;;;;;19.37;10.48;;;;;;;11.01;100.00;150420.78;1669175;84;21683;-62
2022/10/09 03:36:09;;;;;;;18.02;10.05;;;;;;;11.00;100.00;150418.20;1698159;84;21087;-62
2022/10/09 03:38:36;;;;;;;16.52;9.83;;;;;;;11.00;100.00;150418.20;1698110;83;21028;-69
2022/10/09 03:41:05;;;;;;;18.77;10.23;;;;;;;10.98;100.00;150413.00;1698091;83;21087;-69
2022/10/09 03:43:32;;;;;;;17.98;10.88;;;;;;;10.97;100.00;150410.42;1698436;84;21083;-68
2022/10/09 03:46:07;;;;;;;20.17;11.08;;;;;;;10.97;100.00;150410.42;1697950;83;21540;-63
2022/10/09 03:48:35;;;;;;;;;;;;;;;10.99;100.00;150416.87;1700935;84;21091;-68
2022/10/09 03:51:02;;;;;;;21.10;10.05;;;;;;;10.97;100.00;150411.69;1698137;82;20195;-69
2022/10/09 03:53:29;;;;;;;23.25;12.15;;;;;;;10.97;100.00;150410.42;1697876;84;21153;-69
2022/10/09 03:55:56;;;;;;;18.90;11.30;;;;;;;10.97;100.00;150410.42;1697287;84;21052;-63
2022/10/09 03:58:23;;;;;;;25.02;11.43;;;;;;;10.96;100.00;150409.09;1697093;84;21078;-63
2022/10/09 04:00:51;;;;;;;24.72;10.78;;;;;;;10.97;100.00;150410.42;1697430;83;21135;-63
2022/10/09 04:03:18;;;;;;;17.85;10.60;;;;;;;10.96;100.00;150407.81;1697424;84;21043;-63
2022/10/09 04:05:45;;;;;;;20.17;10.38;;;;;;;10.97;100.00;150410.42;1698048;84;21584;-63
2022/10/09 04:08:12;;;;;;;17.90;10.93;;;;;;;10.97;100.00;150410.42;1696058;84;21070;-64
2022/10/09 04:10:38;;;;;;;20.23;11.10;;;;;;;10.97;100.00;150410.42;1694777;83;21116;-70
2022/10/09 04:13:05;;;;;;;23.20;11.12;;;;;;;10.97;100.00;150410.42;1694187;84;21098;-69
2022/10/09 04:15:34;;;;;;;22.10;11.35;;;;;;;10.95;100.00;150406.50;1694674;83;21071;-68
2022/10/09 04:18:00;;;;;;;22.40;10.85;;;;;;;10.93;100.00;150400.00;1707261;84;21229;-69
2022/10/09 04:20:27;;;;;;;19.92;10.60;;;;;;;10.93;100.00;150400.00;1707622;83;21099;-69
2022/10/09 04:22:54;;;;;;;20.15;11.00;;;;;;;10.91;100.00;150396.13;1707604;84;21044;-68
2022/10/09 04:25:21;;;;;;;19.55;12.18;;;;;;;10.89;100.00;150390.94;1707444;83;20993;-68
2022/10/09 04:27:49;;;;;;;20.92;11.73;;;;;;;10.88;100.00;150389.63;1707408;84;21099;-69
2022/10/09 04:30:15;;;;;;;17.35;10.63;;;;;;;10.91;100.00;150394.80;1694412;84;21254;-69
2022/10/09 04:32:43;;;;;;;19.73;10.82;;;;;;;10.98;100.00;150413.00;1681400;84;21057;-68
2022/10/09 04:35:10;;;;;;;17.30;10.48;;;;;;;11.05;100.00;150431.16;1680413;85;21064;-69
2022/10/09 04:37:36;;;;;;;20.40;10.85;;;;;;;11.15;99.80;150455.84;1680759;85;21040;-69
2022/10/09 04:40:04;;;;;;;19.15;10.00;;;;;;;11.29;99.55;150490.88;1674849;85;21025;-69
2022/10/09 04:42:31;;;;;;;18.67;11.28;;;;;;;11.46;99.02;150533.72;1681037;85;21256;-69
2022/10/09 04:44:58;;;;;;;19.80;10.78;;;;;;;11.59;98.13;150566.17;1674738;85;21051;-70
2022/10/09 04:47:25;;;;;;;19.65;11.18;;;;;;;11.68;97.50;150588.25;1674943;85;20966;-69
2022/10/09 04:49:51;;;;;;;29.75;12.25;;;;;;;11.77;96.94;150611.66;1674801;85;21472;-70
2022/10/09 04:52:18;;;;;;;17.50;11.00;;;;;;;11.87;96.39;150636.34;1674908;85;21132;-70
2022/10/09 04:54:45;;;;;;;20.25;10.65;;;;;;;11.94;95.71;150654.52;1680310;84;21612;-69
2022/10/09 04:57:11;;;;;;;16.93;10.23;;;;;;;11.99;95.21;150667.50;1680370;85;21060;-69
2022/10/09 04:59:38;;;;;;;18.05;9.88;;;;;;;12.10;94.56;150693.55;1674734;85;21531;-70
2022/10/09 05:02:05;;;;;;;16.32;10.08;;;;;;;12.18;93.95;150714.31;1676779;84;21143;-70
2022/10/09 05:04:32;;;;;;;21.90;10.68;;;;;;;12.25;93.37;150731.22;1680664;85;21473;-70
2022/10/09 05:06:59;;;;;;;20.72;10.30;;;;;;;12.32;92.83;150750.72;1679300;85;21256;-70
2022/10/09 05:09:26;;;;;;;20.68;10.48;;;;;;;12.42;92.35;150774.08;1674764;85;21068;-68
2022/10/09 05:11:53;;;;;;;18.02;9.73;;;;;;;12.51;91.76;150796.17;1680699;85;21075;-70
2022/10/09 05:14:20;;;;;;;17.48;9.80;;;;;;;12.60;91.33;150820.88;1675112;85;21014;-69
2022/10/09 05:16:56;;;;;;;17.65;10.38;;;;;;;12.70;90.71;150844.25;1674809;85;21467;-69
2022/10/09 05:19:18;;;;;;;22.32;10.10;;;;;;;12.79;90.13;150867.66;1673531;85;21542;-69
2022/10/09 05:21:45;;;;;;;16.87;9.70;;;;;;;12.88;89.63;150891.03;1674716;85;21061;-70
2022/10/09 05:24:12;;;;;;;20.37;10.20;;;;;;;12.99;88.97;150918.34;1674771;85;21721;-69
2022/10/09 05:26:39;;;;;;;20.20;10.25;;;;;;;13.08;88.26;150940.44;1674717;85;21072;-69
2022/10/09 05:29:06;;;;;;;18.92;10.23;;;;;;;13.17;88.01;150963.88;1674619;85;21076;-70
2022/10/09 05:31:33;;;;;;;19.20;10.00;;;;;;;13.28;87.47;150989.86;1669633;85;21835;-69
2022/10/09 05:34:00;;;;;;;13.65;9.70;;;;;;;13.36;87.05;151010.64;1641893;86;21109;-69
2022/10/09 05:36:28;;;;;;;21.65;10.45;;;;;;;13.48;86.82;151039.31;1641904;86;21112;-69
2022/10/09 05:38:56;;;;;;;17.40;10.23;;;;;;;13.59;86.12;151067.91;1641174;86;21366;-69
2022/10/09 05:41:23;;;;;;;17.32;9.90;;;;;;;13.69;85.49;151092.61;1640513;86;20958;-69
2022/10/09 05:43:49;;;;;;;23.57;10.53;;;;;;;13.77;85.04;151112.13;1643793;86;21456;-68
2022/10/09 05:46:24;;;;;;;19.87;9.85;;;;;;;13.87;84.87;151139.44;1641270;86;21040;-70
2022/10/09 05:49:00;;;;;;;19.67;10.15;;;;;;;14.02;84.24;151177.16;1632836;87;21072;-69
2022/10/09 05:51:29;;;;;;;19.07;9.30;;;;;;;14.29;83.78;151243.53;1632800;87;21060;-70
2022/10/09 05:53:57;;;;;;;16.70;9.85;;;;;;;14.56;82.49;151311.19;1608380;87;21119;-70
2022/10/09 05:56:33;;;;;;;23.38;10.05;;;;;;;14.64;81.40;151330.70;1646104;86;21871;-69
2022/10/09 05:59:02;;;;;;;17.02;9.50;;;;;;;14.64;81.12;151330.70;1635339;87;21063;-69
2022/10/09 06:01:32;;;;;;;17.05;9.23;;;;;;;14.67;81.24;151338.50;1635700;87;21084;-69
2022/10/09 06:04:00;;;;;;;17.57;9.55;;;;;;;14.73;81.22;151355.48;1635310;86;21043;-63
2022/10/09 06:06:30;;;;;;;17.05;10.48;;;;;;;14.80;81.11;151372.41;1635878;87;21067;-63
2022/10/09 06:08:56;;;;;;;22.70;10.03;;;;;;;14.87;80.98;151390.63;1657428;85;21130;-63
2022/10/09 06:11:30;;;;;;;16.35;10.30;;;;;;;14.94;80.82;151407.56;1669850;85;20970;-63
2022/10/09 06:14:00;;;;;;;22.77;10.32;;;;;;;14.99;80.55;151419.28;1666920;86;21131;-63
2022/10/09 06:16:30;;;;;;;26.85;10.98;;;;;;;15.01;80.53;151424.48;1669894;84;21077;-63
2022/10/09 06:18:59;;;;;;;14.95;9.55;;;;;;;15.05;80.67;151434.89;1667430;86;21019;-63
2022/10/09 06:21:26;;;;;;;17.20;9.73;;;;;;;15.18;80.32;151468.75;1670200;84;21902;-63
2022/10/09 06:26:22;;;;;;;18.82;10.05;;;;;;;15.41;79.34;151526.05;1820932;78;22552;-63
2022/10/09 06:28:49;;;;;;;14.93;9.35;;;;;;;15.46;78.88;151539.06;1783010;80;20953;-63
2022/10/09 06:31:19;;;;;;;15.05;9.43;;;;;;;15.56;78.35;151562.47;1782663;80;21306;-62
2022/10/09 06:33:47;;;;;;;16.20;9.30;;;;;;;15.63;77.98;151580.73;1783223;80;20954;-62
2022/10/09 06:36:17;;;;;;;14.47;8.68;;;;;;;15.70;77.16;151597.67;1782747;78;20950;-63
2022/10/09 06:38:45;;;;;;;16.67;8.93;;;;;;;15.75;77.22;151610.69;1783155;78;20978;-68
2022/10/09 06:41:17;;;;;;;21.02;8.25;;;;;;;15.84;76.76;151632.84;1782636;78;20954;-69
2022/10/09 06:43:53;;;;;;;17.07;9.80;;;;;;;15.91;76.59;151651.11;1782976;80;21237;-69
2022/10/09 06:46:22;;;;;;;15.00;9.48;;;;;;;16.04;76.44;151685.00;1782548;78;21431;-69
2022/10/09 06:48:49;;;;;;;16.57;9.45;;;;;;;16.16;75.43;151713.62;1783158;80;20950;-70
2022/10/09 06:51:18;;;;;;;17.82;9.60;;;;;;;16.22;75.13;151727.97;1782694;78;21018;-64
2022/10/09 06:53:47;;;;;;;14.80;8.68;;;;;;;16.29;75.20;151747.52;1782859;80;21180;-64
2022/10/09 06:56:16;;;;;;;13.48;8.58;;;;;;;16.39;74.73;151770.95;1782819;80;21445;-70
2022/10/09 06:58:42;;;;;;;16.17;9.20;;;;;;;16.43;74.03;151782.69;1782938;79;21026;-70
2022/10/09 07:01:14;;;;;;;15.45;9.10;;;;;;;16.43;73.96;151782.69;1779334;80;20954;-71
2022/10/09 07:03:43;;;;;;;13.62;8.63;;;;;;;16.47;73.55;151791.83;1774140;79;21095;-70
2022/10/09 07:06:17;;;;;;;22.70;9.90;;;;;;;16.50;73.66;151798.31;1754018;79;20968;-70
2022/10/09 07:08:48;;;;;;;18.80;10.08;;;;;;;16.55;73.86;151812.66;1756880;80;21325;-70
2022/10/09 07:11:24;;;;;;;18.05;9.13;;;;;;;16.64;73.09;151833.50;1762487;80;20929;-69
2022/10/09 07:13:56;;;;;;;17.05;9.40;;;;;;;16.66;72.55;151840.03;1775712;80;21310;-70
2022/10/09 07:16:28;;;;;;;20.85;8.60;;;;;;;16.66;72.32;151840.03;1773315;79;21064;-70
2022/10/09 07:18:56;;;;;;;14.93;8.33;;;;;;;16.65;72.11;151837.42;1764767;80;21036;-70
2022/10/09 07:21:24;;;;;;;13.70;8.10;;;;;;;16.70;72.28;151849.17;1780403;80;21813;-70
2022/10/09 07:23:50;;;;;;;16.70;8.08;;;;;;;16.80;71.99;151875.22;1771880;79;21418;-70
2022/10/09 07:26:21;;;;;;;21.48;7.33;;;;;;;16.88;71.73;151896.05;1787615;80;21029;-63
2022/10/09 07:28:48;;;;;;;24.55;8.23;;;;;;;16.96;71.27;151914.33;1781657;79;21007;-62
2022/10/09 07:31:15;;;;;;;17.12;8.70;;;;;;;17.00;70.79;151924.80;1758524;80;21079;-63
2022/10/09 07:33:48;;;;;;;21.37;8.88;;;;;;;17.05;70.69;151937.81;1788507;79;21211;-69
2022/10/09 07:36:15;;;;;;;13.58;8.33;;;;;;;17.11;70.16;151953.45;1787572;80;21529;-70
2022/10/09 07:38:43;;;;;;;12.58;7.67;;;;;;;17.18;70.06;151971.73;1788163;79;20992;-70
2022/10/09 07:41:11;;;;;;;13.75;7.67;;;;;;;17.27;69.73;151992.56;1787436;78;21131;-70
2022/10/09 07:43:40;;;;;;;17.10;7.05;;;;;;;17.35;69.54;152013.41;1787615;79;21608;-63
2022/10/09 07:46:12;;;;;;;16.50;7.60;;;;;;;17.46;68.74;152042.12;1784125;79;21248;-63
2022/10/09 07:48:39;;;;;;;14.80;7.58;;;;;;;17.52;68.25;152056.47;1764308;80;21043;-64
2022/10/09 07:51:10;;;;;;;18.95;7.42;;;;;;;17.56;67.69;152066.91;1787490;80;21044;-63
2022/10/09 07:53:37;;;;;;;11.88;6.55;;;;;;;17.63;67.28;152082.53;1788364;79;21004;-64
2022/10/09 07:56:05;;;;;;;13.98;7.15;;;;;;;17.69;66.79;152099.50;1787871;80;21075;-63
2022/10/09 07:58:33;;;;;;;20.90;7.80;;;;;;;17.73;65.99;152109.92;1788342;79;21000;-63
2022/10/09 08:01:05;;;;;;;9.85;6.78;;;;;;;17.76;65.86;152116.47;1787399;80;21036;-63
2022/10/09 08:03:35;;;;;;;12.90;6.87;;;;;;;17.80;65.64;152125.61;1788402;80;20976;-65
2022/10/09 08:06:02;;;;;;;12.05;6.60;;;;;;;17.85;65.35;152139.91;1787761;79;21040;-65
2022/10/09 08:08:29;;;;;;;14.28;6.83;;;;;;;17.92;64.98;152156.88;1787194;79;21444;-64
2022/10/09 08:10:57;;;;;;;14.50;7.42;;;;;;;17.94;64.46;152162.09;1771454;80;21024;-65
2022/10/09 08:13:24;;;;;;;17.30;7.53;;;;;;;17.95;64.30;152164.70;1785427;80;20921;-65
2022/10/09 08:15:53;;;;;;;11.80;6.62;;;;;;;17.99;64.07;152173.84;1787984;79;21426;-65
2022/10/09 08:18:19;;;;;;;13.68;6.83;;;;;;;18.06;63.94;152192.14;1787836;79;20999;-67
2022/10/09 08:20:58;;;;;;;12.28;6.58;;;;;;;18.14;64.13;152211.72;1787737;80;21020;-67
2022/10/09 08:23:25;;;;;;;11.63;5.72;;;;;;;18.24;63.92;152236.50;1787866;79;21942;-67
2022/10/09 08:25:52;;;;;;;8.20;5.83;;;;;;;18.30;63.43;152253.47;1778570;80;21069;-67
2022/10/09 08:28:19;;;;;;;14.45;6.53;;;;;;;18.38;62.75;152271.72;1771148;79;21073;-66
2022/10/09 08:30:46;;;;;;;21.07;7.35;;;;;;;18.41;62.66;152280.87;1771191;81;21080;-66
2022/10/09 08:33:19;;;;;;;14.65;6.33;;;;;;;18.48;62.21;152297.84;1771445;79;21034;-67
2022/10/09 08:35:43;;;;;;;16.05;7.45;;;;;;;18.55;62.15;152316.09;1753489;80;21606;-67
2022/10/09 08:38:10;;;;;;;11.50;6.00;;;;;;;18.65;61.35;152340.89;1740467;82;21016;-67
2022/10/09 08:41:06;;;;;;;17.23;5.97;;;;;;;18.70;60.43;152352.64;1740221;82;21063;-67
2022/10/09 08:43:40;;;;;;;13.22;5.97;;;;;;;18.73;60.11;152360.47;1750307;81;21020;-68
2022/10/09 08:46:34;;;;;;;13.03;6.87;;;;;;;18.76;60.38;152368.30;1748674;81;21405;-65
2022/10/09 08:49:02;;;;;;;9.58;6.22;;;;;;;18.82;60.74;152382.66;1756526;81;21150;-68
2022/10/09 08:51:34;;;;;;;14.38;6.83;;;;;;;18.95;60.94;152415.28;1759647;81;21528;-63
2022/10/09 08:54:06;;;;;;;18.37;6.78;;;;;;;19.03;59.49;152437.53;1757783;79;20965;-63
2022/10/09 08:56:33;;;;;;;12.93;5.92;;;;;;;19.06;59.05;152444.02;1751113;81;21590;-62
2022/10/09 08:59:00;;;;;;;10.72;5.95;;;;;;;19.08;58.82;152449.23;1747354;79;21033;-63
2022/10/09 09:01:41;;;;;;;11.22;6.10;;;;;;;19.04;58.53;152440.13;1753951;81;21419;-62
2022/10/09 09:04:44;;;;;;;16.45;5.70;;;;;;;19.04;58.46;152440.13;1760438;81;20993;-65
2022/10/09 09:07:25;;;;;;;23.18;6.47;;;;;;;19.08;58.60;152447.95;1767292;80;21057;-63
2022/10/09 09:10:03;;;;;;;14.53;6.05;;;;;;;19.11;58.82;152457.06;1733008;81;21060;-63
2022/10/09 09:12:39;;;;;;;16.67;5.97;;;;;;;19.18;58.87;152474.03;1760263;80;21463;-65
2022/10/09 09:15:24;;;;;;;17.32;6.67;;;;;;;19.25;58.25;152492.34;1728558;82;21144;-65
2022/10/09 09:18:24;;;;;;;17.25;6.67;;;;;;;19.28;58.42;152500.17;1756458;81;21045;-64
2022/10/09 09:20:54;;;;;;;9.43;5.75;;;;;;;19.32;58.62;152509.28;1757751;80;21021;-70
2022/10/09 09:23:28;;;;;;;12.33;6.55;;;;;;;19.33;57.75;152513.22;1771148;79;21478;-70
2022/10/09 09:25:55;;;;;;;14.73;6.80;;;;;;;19.35;58.00;152517.16;1770604;79;20909;-70
2022/10/09 09:28:32;;;;;;;14.65;6.53;;;;;;;19.37;58.42;152522.38;1770850;80;21217;-70
2022/10/09 09:31:21;;;;;;;20.97;6.85;;;;;;;19.45;57.77;152543.25;1762864;80;21746;-71
2022/10/09 09:34:21;;;;;;;14.98;6.60;;;;;;;19.50;57.74;152553.69;1700404;84;21119;-70
2022/10/09 09:36:57;;;;;;;10.13;5.55;;;;;;;19.55;57.64;152566.72;1776303;79;21242;-71
2022/10/09 09:39:27;;;;;;;10.85;6.08;;;;;;;19.61;56.86;152582.42;1762467;80;20987;-71
2022/10/09 09:41:59;;;;;;;8.68;5.67;;;;;;;19.61;56.73;152582.42;1754412;80;21897;-71
2022/10/09 09:44:25;;;;;;;26.60;6.35;;;;;;;19.64;56.84;152590.25;1772270;80;21100;-70
2022/10/09 09:46:53;;;;;;;18.10;6.65;;;;;;;19.71;56.88;152608.52;1762674;80;21648;-71
2022/10/09 09:49:26;;;;;;;19.90;6.05;;;;;;;19.80;56.48;152629.44;1770253;80;21433;-69
2022/10/09 09:51:51;;;;;;;16.25;6.72;;;;;;;19.88;56.09;152650.31;1758564;79;21003;-69
2022/10/09 09:54:23;;;;;;;9.58;6.40;;;;;;;19.93;55.70;152663.41;1753925;80;20988;-69
2022/10/09 09:56:53;;;;;;;13.28;6.08;;;;;;;19.95;55.94;152668.62;1755902;80;21513;-69
2022/10/09 09:59:38;;;;;;;14.30;5.75;;;;;;;19.96;55.71;152671.25;1784598;80;21827;-70
2022/10/09 10:02:14;;;;;;;;;;;;;;;19.98;55.73;152675.19;1787812;80;21036;-69
2022/10/09 10:04:59;;;;;;;8.90;5.40;;;;;;;20.04;55.32;152690.84;1775497;80;23010;-68
2022/10/09 10:07:32;;;;;;;12.78;5.83;;;;;;;20.06;55.34;152694.78;1771036;80;21218;-70
2022/10/09 10:10:15;;;;;;;12.10;5.40;;;;;;;20.10;55.16;152705.22;1756822;80;21486;-70
2022/10/09 10:12:47;;;;;;;11.53;5.10;;;;;;;20.10;54.83;152705.22;1767194;80;21134;-69
2022/10/09 10:15:29;;;;;;;9.95;5.22;;;;;;;20.13;54.03;152713.05;1776146;80;21080;-71
2022/10/09 10:18:03;;;;;;;16.27;5.97;;;;;;;20.13;53.59;152713.05;1776694;80;21454;-69
2022/10/09 10:20:34;;;;;;;14.65;5.08;;;;;;;20.12;53.55;152711.77;1759092;80;21092;-69
2022/10/09 10:23:01;;;;;;;17.20;6.80;;;;;;;20.13;54.15;152713.05;1753132;81;20988;-71
2022/10/09 10:25:32;;;;;;;12.05;5.10;;;;;;;20.18;54.34;152726.09;1754042;80;21060;-70
2022/10/09 10:28:07;;;;;;;21.40;5.10;;;;;;;20.20;53.20;152731.31;1753797;81;21099;-75
2022/10/09 10:30:35;;;;;;;16.90;4.80;;;;;;;20.24;53.56;152741.81;1753350;81;21118;-76
2022/10/09 10:33:21;;;;;;;10.32;4.92;;;;;;;20.28;52.70;152750.92;1777097;80;21297;-74
2022/10/09 10:35:50;;;;;;;17.65;5.30;;;;;;;20.25;52.32;152744.42;1784477;80;21046;-77
2022/10/09 10:38:45;;;;;;;10.70;5.90;;;;;;;20.23;52.56;152739.20;1765711;80;20970;-69
2022/10/09 10:41:23;;;;;;;11.22;5.17;;;;;;;20.27;52.79;152749.64;1785143;80;21065;-70
2022/10/09 10:44:09;;;;;;;19.73;5.15;;;;;;;20.35;52.15;152767.91;1785780;80;21002;-70
2022/10/09 10:46:47;;;;;;;12.05;5.12;;;;;;;20.40;52.11;152780.97;1783947;80;21318;-69
2022/10/09 10:49:18;;;;;;;11.78;4.92;;;;;;;20.45;52.09;152794.06;1777604;79;21111;-72
2022/10/09 10:51:53;;;;;;;14.35;5.67;;;;;;;20.49;51.51;152804.50;1753708;80;21040;-71
2022/10/09 10:54:40;;;;;;;10.90;4.97;;;;;;;20.54;51.65;152817.56;1779025;80;20980;-63
2022/10/09 10:57:39;;;;;;;8.70;5.00;;;;;;;20.61;51.16;152835.84;1785266;80;21023;-63
2022/10/09 11:00:10;;;;;;;19.02;5.97;;;;;;;20.66;51.08;152846.28;1784155;79;21215;-62
2022/10/09 11:03:36;;;;;;;12.07;5.28;;;;;;;20.72;50.91;152863.28;1785463;79;21621;-70
2022/10/09 11:06:27;;;;;;;14.25;5.22;;;;;;;20.75;50.72;152869.83;1762200;80;21099;-70
2022/10/09 11:09:01;;;;;;;12.35;5.15;;;;;;;20.77;50.26;152875.05;1781350;80;21432;-70
2022/10/09 11:11:40;;;;;;;13.67;5.30;;;;;;;20.79;49.83;152879.00;1742298;80;21022;-70
2022/10/09 11:14:41;;;;;;;13.20;5.37;;;;;;;20.81;49.85;152884.27;1783611;80;21174;-71
2022/10/09 11:17:19;;;;;;;17.70;6.03;;;;;;;20.80;49.94;152881.66;1781135;80;21587;-69
2022/10/09 11:20:44;;;;;;;16.48;5.00;;;;;;;20.79;50.42;152880.28;1783954;80;21128;-69
2022/10/09 11:23:44;;;;;;;21.10;5.15;;;;;;;20.83;50.33;152890.77;1783797;80;21064;-64
2022/10/09 11:26:37;;;;;;;12.98;4.83;;;;;;;20.89;49.63;152906.48;1779064;80;21058;-64
2022/10/09 11:29:18;;;;;;;9.53;4.60;;;;;;;20.94;48.39;152916.92;1766461;80;21671;-63
2022/10/09 11:31:55;;;;;;;11.85;5.22;;;;;;;20.88;48.02;152902.53;1763450;80;21062;-63
2022/10/09 11:34:33;;;;;;;12.85;4.95;;;;;;;20.83;48.38;152890.77;1752090;81;21561;-65
2022/10/09 11:37:00;;;;;;;14.43;5.03;;;;;;;20.78;48.63;152877.66;1753450;79;21103;-62